vent EuroAirport

relevé le direction du vent vitesse du vent [nœuds] vent favorable Piste Nord [nœuds] METAR
2022-10-03 13:30 var 360° 9 8 LFSB 031130Z AUTO 36009KT 9999 SCT010 BKN015 BKN035 15/12 Q1027 NOSIG
2022-10-03 13:00 N 340°
(310°–10°)
9 8–9 LFSB 031100Z AUTO 34009KT 310V010 9999 BKN008 BKN014 OVC037 14/12 Q1027 BECMG SCT020
2022-10-03 12:30 NO 320° 7 7 LFSB 031030Z AUTO 32007KT 9999 BKN007 OVC013 14/12 Q1027 BECMG SCT020
2022-10-03 12:00 N 350°
(310°–20°)
5 4–5 LFSB 031000Z AUTO 35005KT 310V020 9999 BKN006 OVC013 13/12 Q1027 BECMG SCT020
2022-10-03 11:30 N 340° 6 6 LFSB 030930Z AUTO 34006KT 9999 BKN005 BKN009 OVC028 13/12 Q1027 BECMG SCT020
2022-10-03 11:00 N 340° 5 5 LFSB 030900Z AUTO 34005KT 7000 -DZ OVC004 12/12 Q1027 BECMG SCT015
2022-10-03 10:30 N 350° 5 5 LFSB 030830Z AUTO 35005KT 3200 -DZ BR OVC004 12/11 Q1027 BECMG 9999 NSW SCT015
2022-10-03 10:00 N 340° 7 7 LFSB 030800Z AUTO 34007KT 3700 BR OVC004 12/11 Q1027 BECMG 9999 NSW SCT015
2022-10-03 09:30 N 350° 9 9 LFSB 030730Z AUTO 35009KT 6000 OVC003 12/11 Q1027 TEMPO 4000 BR BECMG SCT015
2022-10-03 09:00 N 340° 7 7 LFSB 030700Z AUTO 34007KT 7000 OVC003 12/11 Q1027 TEMPO 4000 BR
2022-10-03 08:30 N 340° 6 6 LFSB 030630Z AUTO 34006KT 7000 OVC003 12/12 Q1026 TEMPO 4000 BR
2022-10-03 08:00 N 340° 6 6 LFSB 030600Z AUTO 34006KT 6000 OVC003 12/12 Q1026 TEMPO 4000 BR VV///
2022-10-03 07:30 NO 320° 5 5 LFSB 030530Z AUTO 32005KT 6000 OVC003 12/12 Q1026 TEMPO 4000 BR VV///
2022-10-03 07:00 N 340° 7 7 LFSB 030500Z AUTO 34007KT 9000 OVC003 12/12 Q1025 TEMPO 0500 FG VV///
2022-10-03 06:30 NO 320° 5 5 LFSB 030430Z AUTO 32005KT 9999 OVC004 12/12 Q1025 TEMPO 0500 FG VV///
2022-10-03 06:00 NO 320° 5 5 LFSB 030400Z AUTO 32005KT 9999 BKN004 OVC028 12/12 Q1025 TEMPO 0500 FG VV///
2022-10-03 05:30 NO 320° 4 4 LFSB 030330Z AUTO 32004KT 9999 BKN005 BKN029 BKN043 12/12 Q1026 TEMPO 0500 FG VV///
2022-10-03 05:00 NO 320° 5 5 LFSB 030300Z AUTO 32005KT 9999 SCT006 OVC046 12/11 Q1025 TEMPO 0500 FG VV///
2022-10-03 04:30 NO 320°
(300°–360°)
6 5–6 LFSB 030230Z AUTO 32006KT 300V360 9999 BKN005 OVC044 12/12 Q1026 TEMPO 0500 FG VV///
2022-10-03 04:00 N 340° 6 6 LFSB 030200Z AUTO 34006KT 9999 BKN004 OVC045 13/12 Q1026 TEMPO 3000 BR BKN005
2022-10-03 03:30 NO 320° 5 5 LFSB 030130Z AUTO 32005KT 9999 SCT003 SCT038 OVC047 13/12 Q1026 TEMPO 3000 BR BKN005
2022-10-03 03:00 NO 320° 6 6 LFSB 030100Z AUTO 32006KT 9999 SCT003 SCT041 OVC048 13/12 Q1025 TEMPO 3000 BR BKN005
2022-10-03 02:30 NO 310° 4 3 LFSB 030030Z AUTO 31004KT 9999 FEW005 BKN048 OVC058 13/12 Q1025 TEMPO 3000 BR BKN005
2022-10-03 02:00 O 290° 5 3 LFSB 030000Z AUTO 29005KT 9999 FEW006 BKN049 OVC056 13/12 Q1025 TEMPO 3000 BR BKN005
2022-10-03 01:30 O 290° 5 3 LFSB 022330Z AUTO 29005KT 9999 FEW005/// BKN049/// OVC058/// //////TCU 13/13 Q1025 TEMPO 3000 BR BKN005
2022-10-03 01:00 NO 310° 6 5 LFSB 022300Z AUTO 31006KT 9999 SCT005/// BKN032/// BKN039/// //////TCU 13/13 Q1024 BECMG 3000 BR BKN005
2022-10-03 00:30 NO 330°
(300°–10°)
4 3–4 LFSB 022230Z AUTO 33004KT 300V010 9999 FEW016/// SCT023/// BKN029/// ///TCU 13/13 Q1024 BECMG 3000 BR BKN005
2022-10-03 00:00 N 10° 12 10 LFSB 022200Z AUTO 01012KT 5000 +RA BR FEW007/// BKN017/// BKN024/// //////CB 14/13 Q1024 TEMPO 2000 RA BKN012 SCT020TCU
2022-10-02 23:30 O 280° 7 4 LFSB 022130Z AUTO 28007KT 9000 RA SCT021/// BKN030/// BKN042/// //////CB 16/14 Q1024 TEMPO 34010KT 2000 RA BKN012 SCT020TCU
2022-10-02 23:00 O 260°
(220°–280°)
11 0–6 LFSB 022100Z AUTO 26011KT 220V280 9999 FEW015/// BKN043/// BKN088/// //////TCU 16/14 Q1023 TEMPO 34010KT 2000 RA BKN012 SCT020TCU
2022-10-02 22:30 O 250° 11 - LFSB 022030Z AUTO 25011KT 9999 //////CB 16/14 Q1023 TEMPO 34010KT 2000 RA BKN012 SCT020TCU
2022-10-02 22:00 O 260° 10 2 LFSB 022000Z AUTO 26010KT 9999 FEW034/// BKN092/// BKN110/// //////CB 16/14 Q1023 TEMPO 34010KT 2000 RA BKN012 SCT020TCU
2022-10-02 21:30 SO 240° 13 - LFSB 021930Z AUTO 24013KT 9999 BKN037/// BKN045/// BKN052/// //////CB 16/14 Q1023 TEMPO 34010KT 2000 RA BKN012 SCT020TCU
2022-10-02 21:00 O 250° 14 - LFSB 021900Z AUTO 25014KT 9999 FEW015/// BKN060/// BKN088/// //////CB 17/13 Q1023 NOSIG
2022-10-02 20:30 SO 230° 11 - LFSB 021830Z AUTO 23011KT 9999 BKN050/// BKN088/// BKN100/// //////TCU 17/13 Q1023 NOSIG
2022-10-02 20:00 O 250°
(210°–280°)
7 0–4 LFSB 021800Z AUTO 25007KT 210V280 9999 FEW036 BKN043 OVC180 17/13 Q1023 TEMPO FEW030TCU
2022-10-02 19:30 SO 240° 7 - LFSB 021730Z AUTO 24007KT 9999 FEW038 SCT060 BKN120 17/13 Q1023 TEMPO FEW030TCU
2022-10-02 19:00 SO 240° 12 - LFSB 021700Z AUTO 24012KT 9999 SCT036 BKN068 BKN120 17/12 Q1022 TEMPO 34010KT 2000 RA BKN012 SCT020TCU
2022-10-02 18:30 SO 240° 10 - LFSB 021630Z AUTO 24010KT 9999 SCT040 BKN046 BKN060 18/12 Q1022 TEMPO 34010KT 2000 RA BKN012 SCT020TCU
2022-10-02 18:00 O 250° 15 - LFSB 021600Z AUTO 25015KT 9999 FEW018 BKN044 BKN050 18/12 Q1022 TEMPO 25015G25KT 4000 SHRA SCT030TCU
2022-10-02 17:30 O 250° 11 - LFSB 021530Z AUTO 25011KT 9999 FEW036 SCT048 BKN054 18/12 Q1021 TEMPO 25015G25KT 4000 SHRA SCT030TCU
2022-10-02 17:00 O 250°
(220°–280°)
15 0–8 LFSB 021500Z AUTO 25015KT 220V280 9999 BKN046/// BKN060/// //////TCU 19/12 Q1021 TEMPO 25015G25KT 4000 SHRA
2022-10-02 16:30 SO 240°
(210°–270°)
29 0–10 LFSB 021430Z AUTO 24018G29KT 210V270 CAVOK 20/12 Q1021 TEMPO 4000 SHRA SCT030TCU
2022-10-02 16:00 SO 230°
(190°–260°)
17 0–3 LFSB 021400Z AUTO 23017KT 190V260 9999 FEW032/// SCT080/// BKN210/// //////TCU 20/13 Q1021 TEMPO 25018G30KT 4000 SHRA
2022-10-02 15:30 O 250° 31 - LFSB 021330Z AUTO 25018G31KT 9999 BKN031 BKN052 BKN072 20/13 Q1021 TEMPO 4000 SHRA SCT030TCU
2022-10-02 15:00 O 250°
(220°–280°)
20 0–10 LFSB 021300Z AUTO 25020KT 220V280 9999 BKN034 BKN045 BKN080 21/14 Q1021 TEMPO 25018G30KT 4000 SHRA SCT030TCU
2022-10-02 14:30 O 260°
(230°–290°)
30 0–19 LFSB 021230Z AUTO 26016G30KT 230V290 9999 FEW032 BKN042 BKN050 21/14 Q1021 TEMPO 4000 SHRA SCT030TCU
2022-10-02 14:00 O 260°
(220°–280°)
16 0–8 LFSB 021200Z AUTO 26016KT 220V280 9999 SCT029 BKN035 BKN045 20/15 Q1021 TEMPO 25015G25KT 4000 SHRA SCT030TCU